Time;durP1;ratioP1;P1;durP2;ratioP2;P2;SDS_P1;SDS_P2;PMS_P1;PMS_P2;Temp;Humidity;BMP_temperature;BMP_pressure;BME280_temperature;BME280_humidity;BME280_pressure;Samples;Min_cycle;Max_cycle;Signal;HPM_P1;HPM_P2
2021/05/06 00:33:22;;;;;;;2.55;2.35;;;4.70;99.90;;;;;;5029782;28;20049;-82
2021/05/06 00:35:51;;;;;;;6.13;2.28;;;4.70;99.80;;;;;;5029187;28;20056;-82
2021/05/06 00:38:26;;;;;;;2.42;2.17;;;4.70;99.90;;;;;;5023571;28;20487;-83
2021/05/06 00:58:09;;;;;;;1.98;1.88;;;5.00;97.70;;;;;;4961450;28;20479;-82
2021/05/06 01:12:59;;;;;;;1.50;1.40;;;5.10;97.50;;;;;;4979423;28;20049;-82
2021/05/06 01:15:29;;;;;;;1.45;1.35;;;5.00;97.90;;;;;;4999448;28;20041;-82
2021/05/06 01:17:58;;;;;;;5.78;1.50;;;4.90;98.70;;;;;;5033282;28;20041;-82
2021/05/06 01:20:31;;;;;;;1.90;1.80;;;4.80;99.20;;;;;;5032304;28;20049;-82
2021/05/06 01:23:06;;;;;;;3.00;1.63;;;4.80;99.40;;;;;;5015207;28;20045;-82
2021/05/06 01:25:34;;;;;;;10.10;2.70;;;4.80;99.40;;;;;;5015367;28;20406;-82
2021/05/06 01:28:07;;;;;;;2.85;1.90;;;4.80;99.70;;;;;;5015728;28;20056;-82
2021/05/06 01:30:46;;;;;;;4.83;3.27;;;4.80;99.90;;;;;;4987212;28;20060;-82
2021/05/06 01:36:05;;;;;;;3.38;1.85;;;4.70;99.90;;;;;;4978127;28;20399;-82
2021/05/06 01:38:54;;;;;;;2.33;2.03;;;4.70;99.90;;;;;;5014896;28;20431;-77
2021/05/06 01:41:41;;;;;;;2.13;1.95;;;4.50;99.90;;;;;;5033560;28;20076;-77
2021/05/06 01:58:04;;;;;;;4.97;2.50;;;4.50;99.90;;;;;;5032418;28;20392;-82
2021/05/06 02:00:38;;;;;;;2.70;2.10;;;4.50;99.90;;;;;;5014219;28;20057;-82
2021/05/06 02:03:28;;;;;;;3.65;2.10;;;4.50;99.90;;;;;;5032047;28;20054;-82
2021/05/06 02:05:56;;;;;;;2.20;1.60;;;4.60;99.90;;;;;;5015368;28;20057;-82
2021/05/06 02:08:25;;;;;;;2.70;2.42;;;4.50;99.90;;;;;;4997770;28;20057;-82
2021/05/06 02:11:00;;;;;;;2.03;1.88;;;4.60;99.90;;;;;;5014392;28;20053;-82
2021/05/06 02:13:53;;;;;;;1.90;1.80;;;4.50;99.90;;;;;;4976331;28;20432;-82
2021/05/06 02:16:32;;;;;;;6.03;2.40;;;4.50;99.90;;;;;;5005971;28;20060;-82
2021/05/06 02:19:03;;;;;;;4.70;2.30;;;4.50;99.90;;;;;;5013737;28;20045;-82
2021/05/06 02:21:31;;;;;;;5.05;2.38;;;4.60;99.90;;;;;;4994847;28;20050;-82
2021/05/06 02:24:01;;;;;;;2.08;1.88;;;4.50;99.90;;;;;;5012506;28;20046;-82
2021/05/06 02:26:32;;;;;;;2.22;2.03;;;4.50;99.90;;;;;;5011219;28;20076;-82
2021/05/06 02:29:00;;;;;;;5.90;4.47;;;4.50;99.90;;;;;;5012073;28;20081;-82
2021/05/06 02:31:27;;;;;;;1.80;1.70;;;4.50;99.90;;;;;;5023785;28;20041;-82
2021/05/06 02:33:58;;;;;;;5.25;1.65;;;4.50;99.90;;;;;;4997651;28;20049;-83
2021/05/06 02:40:47;;;;;;;2.05;1.83;;;4.50;99.90;;;;;;4964953;28;20054;-82
2021/05/06 02:43:22;;;;;;;2.10;1.95;;;4.50;99.90;;;;;;4978375;28;20038;-82
2021/05/06 02:45:51;;;;;;;2.30;2.17;;;4.50;99.90;;;;;;5002562;28;20053;-82
2021/05/06 02:48:19;;;;;;;4.25;2.55;;;4.50;99.90;;;;;;5028547;28;20045;-81
2021/05/06 02:50:55;;;;;;;1.90;1.80;;;4.70;99.90;;;;;;5030332;28;20056;-87
2021/05/06 02:53:26;;;;;;;3.22;2.13;;;4.80;99.20;;;;;;5013726;28;20064;-86
2021/05/06 02:56:06;;;;;;;2.40;1.42;;;4.90;99.10;;;;;;4996994;28;20049;-87
2021/05/06 03:04:38;;;;;;;1.48;1.38;;;4.90;99.00;;;;;;5030974;28;20049;-87
2021/05/06 03:07:13;;;;;;;1.73;1.55;;;5.00;98.10;;;;;;5013000;28;20050;-87
2021/05/06 03:13:19;;;;;;;3.22;2.08;;;5.30;97.90;;;;;;5012846;28;20403;-86
2021/05/06 03:23:34;;;;;;;11.43;3.47;;;5.40;96.50;;;;;;5013066;28;20053;-86
2021/05/06 03:26:03;;;;;;;3.65;2.65;;;5.40;96.30;;;;;;5013594;28;20049;-86
2021/05/06 03:28:36;;;;;;;2.10;1.88;;;5.40;96.50;;;;;;4996577;28;20052;-86
2021/05/06 04:38:43;;;;;;;4.55;2.90;;;5.20;99.90;;;;;;4958728;28;20493;-85
2021/05/06 04:55:32;;;;;;;4.25;2.42;;;5.20;99.90;;;;;;5008416;28;20398;-85
2021/05/06 05:06:34;;;;;;;3.70;1.88;;;5.50;99.90;;;;;;5008571;28;20057;-86
2021/05/06 05:11:39;;;;;;;5.05;2.13;;;5.50;99.90;;;;;;5008973;28;20050;-86
2021/05/06 05:14:28;;;;;;;2.65;1.77;;;5.60;99.90;;;;;;5011454;28;20053;-86
2021/05/06 05:25:45;;;;;;;1.83;1.73;;;5.80;99.90;;;;;;5010563;28;20072;-81
2021/05/06 05:27:52;;;;;;;7.07;3.42;;;5.80;99.90;;;;;;5020798;28;20056;-81
2021/05/06 05:30:23;;;;;;;1.10;1.08;;;5.80;99.90;;;;;;5028180;28;20053;-81
2021/05/06 05:33:18;;;;;;;2.20;2.00;;;5.80;99.90;;;;;;5000773;28;20053;-81
2021/05/06 05:56:02;;;;;;;3.05;2.15;;;6.40;99.90;;;;;;4990896;28;20056;-81
2021/05/06 06:06:23;;;;;;;2.20;1.90;;;6.70;99.10;;;;;;4829393;29;20053;-81
2021/05/06 06:09:30;;;;;;;3.28;1.70;;;6.80;99.20;;;;;;4810052;29;20045;-81
2021/05/06 06:11:59;;;;;;;4.10;2.13;;;6.90;98.50;;;;;;4830468;29;20061;-80
2021/05/06 06:14:53;;;;;;;1.42;1.27;;;6.90;98.80;;;;;;4913303;29;20051;-81
2021/05/06 06:17:21;;;;;;;4.32;3.55;;;7.00;99.10;;;;;;4930948;28;20062;-80
2021/05/06 06:19:51;;;;;;;2.83;1.95;;;7.00;97.00;;;;;;4959449;28;20411;-80
2021/05/06 06:22:21;;;;;;;4.47;2.35;;;7.00;98.10;;;;;;4988928;28;20058;-81
2021/05/06 06:24:49;;;;;;;4.63;2.20;;;7.00;99.30;;;;;;4988686;28;20407;-80
2021/05/06 06:27:21;;;;;;;3.15;1.92;;;7.10;98.90;;;;;;4983551;28;20398;-83
2021/05/06 06:30:34;;;;;;;4.47;2.00;;;7.40;99.10;;;;;;5013509;28;20045;-84
2021/05/06 06:37:17;;;;;;;3.00;2.58;;;8.00;94.80;;;;;;4930802;28;20051;-84
2021/05/06 06:45:14;;;;;;;3.90;1.90;;;8.70;94.20;;;;;;5018256;28;20050;-84
2021/05/06 06:47:51;;;;;;;3.65;1.55;;;8.80;91.60;;;;;;4998103;28;20052;-84
2021/05/06 06:50:23;;;;;;;6.70;2.60;;;8.60;91.10;;;;;;5012334;28;20117;-82
2021/05/06 06:53:04;;;;;;;4.27;1.73;;;8.50;90.50;;;;;;5008058;28;20049;-83
2021/05/06 06:55:57;;;;;;;10.80;2.92;;;9.00;91.80;;;;;;5004644;28;20068;-83
2021/05/06 06:59:01;;;;;;;5.97;2.20;;;9.60;88.70;;;;;;5009845;28;20439;-84
2021/05/06 07:01:35;;;;;;;6.43;1.92;;;9.70;91.00;;;;;;4981491;28;20073;-84
2021/05/06 07:04:16;;;;;;;2.42;1.85;;;9.50;90.70;;;;;;5003037;28;20263;-84
2021/05/06 07:07:58;;;;;;;17.23;4.40;;;9.10;89.80;;;;;;5008992;28;20057;-84
2021/05/06 07:10:42;;;;;;;22.13;3.30;;;9.10;91.50;;;;;;4979193;28;20053;-84
2021/05/06 07:13:54;;;;;;;4.28;2.30;;;9.50;90.60;;;;;;5029281;28;20049;-84
2021/05/06 07:16:22;;;;;;;12.90;2.40;;;9.20;90.20;;;;;;5010982;28;20048;-84
2021/05/06 07:18:52;;;;;;;3.17;1.65;;;9.20;86.40;;;;;;4993618;28;20486;-84
2021/05/06 07:21:20;;;;;;;3.85;2.10;;;9.70;85.50;;;;;;5011784;28;20060;-84
2021/05/06 07:28:53;;;;;;;5.95;2.28;;;10.70;84.30;;;;;;4971854;28;20035;-83
2021/05/06 07:31:33;;;;;;;4.47;3.65;;;10.30;84.40;;;;;;5002107;28;20057;-83
2021/05/06 07:34:11;;;;;;;5.88;1.77;;;10.20;84.40;;;;;;5008032;28;20487;-82
2021/05/06 07:36:48;;;;;;;5.15;1.90;;;10.20;82.70;;;;;;5024762;28;20510;-83
2021/05/06 07:39:44;;;;;;;5.35;1.95;;;10.00;84.70;;;;;;5028176;28;20889;-83
2021/05/06 07:42:14;;;;;;;5.60;1.67;;;9.90;84.20;;;;;;5019726;28;20041;-83
2021/05/06 07:44:58;;;;;;;4.80;1.92;;;9.90;86.20;;;;;;5010254;28;20068;-82
2021/05/06 07:47:49;;;;;;;9.57;2.78;;;9.80;81.50;;;;;;5029328;28;20037;-81
2021/05/06 07:50:21;;;;;;;10.98;1.83;;;9.30;85.50;;;;;;5029967;28;20061;-81
2021/05/06 07:53:06;;;;;;;2.33;1.83;;;9.30;90.30;;;;;;5010795;28;20053;-85
2021/05/06 07:55:40;;;;;;;2.80;1.60;;;9.70;87.60;;;;;;5009254;28;20300;-84
2021/05/06 07:58:26;;;;;;;3.90;2.25;;;9.70;82.60;;;;;;5010898;28;20503;-84
2021/05/06 08:01:35;;;;;;;2.65;2.45;;;10.20;82.90;;;;;;4979977;28;20057;-84
2021/05/06 08:04:13;;;;;;;4.72;2.00;;;10.40;78.60;;;;;;4992391;28;20046;-81
2021/05/06 08:06:58;;;;;;;4.68;2.15;;;10.60;83.50;;;;;;4997437;28;20062;-83
2021/05/06 08:10:02;;;;;;;6.35;1.70;;;10.50;78.30;;;;;;5017738;28;20061;-82
2021/05/06 08:12:59;;;;;;;6.82;2.47;;;10.40;82.20;;;;;;4965847;28;20046;-83
2021/05/06 08:15:31;;;;;;;3.33;2.05;;;10.30;83.90;;;;;;4977519;28;20042;-81
2021/05/06 08:18:31;;;;;;;3.65;2.20;;;10.20;83.00;;;;;;4985658;28;20585;-82
2021/05/06 08:21:02;;;;;;;5.97;1.75;;;9.80;80.80;;;;;;4990917;28;20084;-85
2021/05/06 08:23:34;;;;;;;9.70;2.00;;;10.10;85.80;;;;;;4991219;28;20053;-82
2021/05/06 08:26:35;;;;;;;7.70;3.28;;;11.00;80.80;;;;;;4990036;28;20068;-83
2021/05/06 08:29:38;;;;;;;3.60;1.45;;;11.50;76.10;;;;;;4968898;28;20050;-81
2021/05/06 08:32:05;;;;;;;3.15;1.77;;;11.50;70.00;;;;;;4972718;28;20047;-81
2021/05/06 08:34:35;;;;;;;1.70;1.40;;;12.20;74.20;;;;;;4972651;28;20065;-82
2021/05/06 08:37:05;;;;;;;2.70;1.55;;;12.50;76.40;;;;;;4971803;28;20055;-83
2021/05/06 08:39:33;;;;;;;4.15;1.50;;;12.10;78.30;;;;;;4976167;28;20514;-84
2021/05/06 08:42:18;;;;;;;;;;;;;;;;;;;;;
2021/05/06 08:45:12;;;;;;;3.38;1.30;;;12.50;69.50;;;;;;4968259;28;20076;-82
2021/05/06 08:47:40;;;;;;;4.32;1.30;;;11.40;74.50;;;;;;4970541;28;20046;-81
2021/05/06 08:50:16;;;;;;;4.80;1.40;;;11.00;85.30;;;;;;4968857;28;20440;-82
2021/05/06 08:53:43;;;;;;;1.38;1.08;;;11.40;73.70;;;;;;4958447;28;20047;-82
2021/05/06 08:56:34;;;;;;;2.70;1.65;;;11.90;79.70;;;;;;4941326;29;20055;-84
2021/05/06 08:59:05;;;;;;;1.55;1.40;;;12.40;74.30;;;;;;4963093;28;20428;-85
2021/05/06 09:02:30;;;;;;;3.47;1.50;;;12.40;73.30;;;;;;4968793;28;20062;-84
2021/05/06 09:05:28;;;;;;;2.90;1.35;;;12.10;74.00;;;;;;4964088;28;20046;-83
2021/05/06 09:08:30;;;;;;;2.30;1.23;;;12.00;76.30;;;;;;4968397;28;20057;-84
2021/05/06 09:11:32;;;;;;;4.75;2.95;;;12.20;77.20;;;;;;4936377;29;20044;-84
2021/05/06 09:14:08;;;;;;;2.95;1.60;;;11.80;73.80;;;;;;4929063;29;20055;-84
2021/05/06 09:16:43;;;;;;;2.53;1.63;;;11.80;81.90;;;;;;4932005;29;20493;-85
2021/05/06 09:19:19;;;;;;;2.28;1.70;;;12.00;80.60;;;;;;4949761;28;20057;-83
2021/05/06 09:22:29;;;;;;;;;;;;;;;;;;;;;
2021/05/06 09:25:37;;;;;;;4.03;2.08;;;12.40;76.80;;;;;;4970283;28;20046;-85
2021/05/06 09:28:38;;;;;;;5.97;2.88;;;11.90;76.10;;;;;;4986059;28;20061;-84
2021/05/06 09:31:37;;;;;;;5.75;1.90;;;11.60;72.70;;;;;;4988647;28;20070;-83
2021/05/06 09:34:13;;;;;;;4.72;1.60;;;11.50;79.80;;;;;;5012828;28;20054;-78
2021/05/06 09:37:26;;;;;;;8.55;2.15;;;11.40;71.00;;;;;;5010628;28;20050;-85
2021/05/06 09:40:45;;;;;;;7.60;1.20;;;11.20;75.00;;;;;;4989682;28;20042;-85
2021/05/06 09:43:53;;;;;;;5.60;2.42;;;11.40;77.40;;;;;;4992247;28;20042;-84
2021/05/06 09:46:56;;;;;;;5.80;2.30;;;11.30;76.60;;;;;;4968039;28;20050;-84
2021/05/06 09:49:24;;;;;;;2.75;1.55;;;11.50;79.10;;;;;;5004771;28;20483;-84
2021/05/06 09:52:01;;;;;;;4.00;1.48;;;11.60;75.10;;;;;;5000956;28;20806;-85
2021/05/06 09:54:47;;;;;;;1.85;1.75;;;11.40;74.60;;;;;;4986226;28;20059;-84
2021/05/06 09:57:53;;;;;;;3.92;1.60;;;11.40;70.70;;;;;;4991114;28;20050;-84
2021/05/06 10:00:23;;;;;;;2.67;1.35;;;11.40;75.10;;;;;;4992427;28;20393;-83
2021/05/06 10:02:51;;;;;;;4.05;1.70;;;11.50;79.50;;;;;;5009168;28;20053;-83
2021/05/06 10:05:37;;;;;;;5.75;1.85;;;11.60;78.90;;;;;;5009178;28;20057;-83
2021/05/06 10:08:05;;;;;;;3.08;1.60;;;11.70;77.60;;;;;;5007672;28;20038;-83
2021/05/06 10:10:41;;;;;;;5.82;1.73;;;11.80;75.10;;;;;;4998249;28;20065;-84
2021/05/06 10:13:10;;;;;;;3.60;1.27;;;11.80;78.20;;;;;;5007973;28;20054;-82
2021/05/06 10:15:40;;;;;;;2.35;1.63;;;11.80;73.90;;;;;;5009096;28;20476;-80
2021/05/06 10:18:08;;;;;;;3.53;2.38;;;11.90;73.60;;;;;;5009285;28;20475;-83
2021/05/06 10:20:38;;;;;;;2.28;1.58;;;11.90;80.70;;;;;;4997529;28;20062;-85
2021/05/06 10:23:13;;;;;;;6.47;1.45;;;11.90;72.70;;;;;;4994371;28;20033;-81
2021/05/06 10:25:41;;;;;;;8.52;1.67;;;11.90;77.30;;;;;;5009709;28;20054;-83
2021/05/06 10:28:15;;;;;;;6.00;2.20;;;11.90;78.20;;;;;;5011331;28;20050;-83
2021/05/06 10:30:42;;;;;;;4.13;2.47;;;11.80;74.20;;;;;;5009917;28;20046;-83
2021/05/06 10:33:10;;;;;;;5.10;1.70;;;11.80;75.80;;;;;;5010482;28;20061;-83
2021/05/06 10:35:38;;;;;;;2.90;1.75;;;11.80;80.60;;;;;;5003716;28;20057;-83
2021/05/06 10:38:15;;;;;;;5.22;1.70;;;11.70;79.20;;;;;;4992819;28;20054;-81
2021/05/06 10:40:58;;;;;;;1.65;1.55;;;11.60;78.20;;;;;;5001855;28;20394;-85
2021/05/06 10:43:31;;;;;;;3.60;1.50;;;11.60;78.90;;;;;;5011646;28;20049;-82
2021/05/06 10:46:00;;;;;;;3.58;2.45;;;11.60;84.30;;;;;;5011426;28;20058;-83
2021/05/06 10:49:03;;;;;;;2.15;1.33;;;11.50;77.70;;;;;;5011240;28;20070;-81
2021/05/06 10:51:40;;;;;;;;;;;11.40;78.90;;;;;;5003870;28;20054;-82
2021/05/06 10:54:46;;;;;;;4.15;1.55;;;11.30;76.10;;;;;;4992000;28;19922;-80
2021/05/06 10:57:22;;;;;;;6.65;1.75;;;11.30;79.30;;;;;;4951260;28;20072;-81
2021/05/06 10:59:55;;;;;;;1.30;1.05;;;11.20;86.90;;;;;;5011123;28;20412;-79
2021/05/06 11:02:42;;;;;;;1.92;1.73;;;10.90;82.40;;;;;;5010024;28;20058;-78
2021/05/06 11:05:19;;;;;;;3.05;1.50;;;10.80;85.20;;;;;;5011202;28;20271;-80
2021/05/06 11:08:05;;;;;;;5.22;1.48;;;10.80;84.80;;;;;;5010623;28;20494;-82
2021/05/06 11:10:53;;;;;;;4.75;1.40;;;10.80;85.20;;;;;;5010676;28;20049;-82
2021/05/06 11:13:22;;;;;;;12.88;2.55;;;10.50;85.40;;;;;;5009510;28;20068;-82
2021/05/06 11:16:30;;;;;;;2.47;2.28;;;10.50;81.70;;;;;;5010651;28;20042;-83
2021/05/06 11:18:59;;;;;;;3.53;1.98;;;10.50;88.70;;;;;;4913343;29;20052;-81
2021/05/06 11:21:29;;;;;;;1.77;1.67;;;10.40;90.90;;;;;;4996257;28;20075;-81
2021/05/06 11:24:18;;;;;;;4.53;1.63;;;10.40;90.90;;;;;;5010868;28;20046;-81
2021/05/06 11:27:13;;;;;;;2.25;2.10;;;10.20;89.00;;;;;;4993063;28;20053;-78
2021/05/06 11:29:44;;;;;;;2.70;2.30;;;10.00;91.00;;;;;;4977419;28;20061;-78
2021/05/06 11:32:23;;;;;;;7.53;1.60;;;9.70;93.70;;;;;;5006746;28;20046;-76
2021/05/06 11:34:53;;;;;;;3.33;1.73;;;9.60;92.60;;;;;;5006488;28;20049;-75
2021/05/06 11:37:23;;;;;;;4.32;1.95;;;9.50;95.50;;;;;;5010928;28;20054;-79
2021/05/06 11:40:02;;;;;;;6.13;1.92;;;9.60;95.10;;;;;;5004849;28;20496;-78
2021/05/06 11:42:40;;;;;;;4.65;1.98;;;9.50;95.20;;;;;;4989584;28;20058;-79
2021/05/06 11:45:10;;;;;;;5.53;1.77;;;9.40;97.00;;;;;;4990721;28;20058;-78
2021/05/06 11:47:39;;;;;;;4.88;2.05;;;9.40;96.00;;;;;;4989891;28;20495;-82
2021/05/06 11:50:32;;;;;;;6.13;3.17;;;9.30;97.00;;;;;;4976079;28;20061;-84
2021/05/06 11:53:01;;;;;;;3.58;1.90;;;9.40;96.00;;;;;;4975265;28;20053;-81
2021/05/06 11:55:41;;;;;;;3.13;2.20;;;9.30;95.50;;;;;;4992760;28;20038;-83
2021/05/06 11:58:09;;;;;;;20.67;4.90;;;9.10;97.40;;;;;;4992851;28;20497;-83
2021/05/06 12:00:42;;;;;;;8.43;2.67;;;9.20;98.90;;;;;;5007591;28;20041;-83
2021/05/06 12:03:20;;;;;;;3.13;2.72;;;9.40;97.50;;;;;;5007790;28;20510;-83
2021/05/06 12:05:58;;;;;;;7.00;2.35;;;9.40;95.90;;;;;;5008666;28;20050;-84
2021/05/06 12:08:31;;;;;;;2.95;2.00;;;9.60;96.40;;;;;;5009915;28;20050;-85
2021/05/06 12:11:02;;;;;;;8.00;2.30;;;9.40;95.90;;;;;;4994973;28;20042;-84
2021/05/06 12:13:35;;;;;;;5.05;1.92;;;9.20;97.00;;;;;;4988698;28;20614;-83
2021/05/06 12:16:14;;;;;;;2.25;1.52;;;9.20;97.60;;;;;;4989865;28;20407;-84
2021/05/06 12:18:59;;;;;;;7.15;2.20;;;9.20;97.60;;;;;;4987566;28;20657;-83
2021/05/06 12:21:35;;;;;;;4.32;2.33;;;9.20;96.60;;;;;;4989049;28;20076;-83
2021/05/06 12:24:08;;;;;;;3.25;2.88;;;9.30;98.70;;;;;;4972883;28;20126;-84
2021/05/06 12:26:36;;;;;;;1.95;1.83;;;9.30;98.40;;;;;;4972982;28;20065;-83
2021/05/06 12:29:04;;;;;;;2.05;1.88;;;9.40;99.50;;;;;;5008326;28;20068;-84
2021/05/06 12:31:46;;;;;;;2.58;1.73;;;9.50;99.50;;;;;;5009201;28;20053;-84
2021/05/06 12:34:21;;;;;;;5.38;2.58;;;9.40;96.80;;;;;;5010163;28;20050;-84
2021/05/06 12:36:57;;;;;;;3.03;2.33;;;9.20;97.30;;;;;;4991358;28;20053;-84
2021/05/06 12:39:28;;;;;;;3.67;2.67;;;9.10;98.00;;;;;;4971856;28;20058;-84
2021/05/06 12:42:06;;;;;;;1.85;1.58;;;9.20;99.70;;;;;;4973434;28;20050;-85
2021/05/06 12:44:46;;;;;;;5.40;3.17;;;9.30;97.00;;;;;;4994811;28;20050;-83
2021/05/06 12:47:27;;;;;;;2.75;1.83;;;9.40;96.70;;;;;;4991274;28;20138;-83
2021/05/06 12:50:20;;;;;;;1.88;1.55;;;9.30;97.00;;;;;;5008836;28;20068;-84
2021/05/06 12:52:53;;;;;;;2.97;2.15;;;9.30;98.00;;;;;;5008294;28;20042;-84
2021/05/06 12:59:01;;;;;;;2.47;1.63;;;9.40;97.10;;;;;;4991449;28;20048;-85
2021/05/06 13:02:10;;;;;;;3.22;1.40;;;9.10;95.80;;;;;;4988262;28;20066;-84
2021/05/06 13:04:58;;;;;;;4.35;1.95;;;9.10;96.60;;;;;;4971267;28;20053;-82
2021/05/06 13:08:11;;;;;;;5.10;2.63;;;9.10;97.10;;;;;;4960960;28;20053;-82
2021/05/06 13:10:47;;;;;;;1.42;1.33;;;9.40;96.70;;;;;;4982416;28;20305;-82
2021/05/06 13:13:54;;;;;;;1.73;1.50;;;9.40;97.70;;;;;;5010384;28;20065;-83
2021/05/06 13:17:35;;;;;;;8.48;1.70;;;9.40;97.60;;;;;;4994688;28;20467;-85
2021/05/06 13:31:20;;;;;;;2.28;1.48;;;9.50;97.80;;;;;;4922053;29;20035;-85
2021/05/06 13:34:17;;;;;;;5.35;1.70;;;9.40;96.40;;;;;;4993637;28;20503;-85
2021/05/06 13:37:17;;;;;;;1.55;1.27;;;9.20;96.00;;;;;;5010450;28;20045;-84
2021/05/06 13:40:33;;;;;;;2.47;1.50;;;9.00;96.70;;;;;;4972521;28;20056;-84
2021/05/06 14:11:39;;;;;;;2.28;2.08;;;9.80;96.90;;;;;;4790162;29;20714;-85
2021/05/06 14:15:53;;;;;;;;;;;;;;;;;;;;;
2021/05/06 14:20:49;;;;;;;;;;;;;;;;;;;;;
2021/05/06 14:29:56;;;;;;;1.77;1.60;;;9.30;98.50;;;;;;4853616;29;20056;-84
2021/05/06 14:32:45;;;;;;;1.97;1.77;;;9.20;99.10;;;;;;4844328;29;20049;-84
2021/05/06 14:35:36;;;;;;;1.70;1.60;;;9.10;99.90;;;;;;4883491;29;20048;-84
2021/05/06 14:38:14;;;;;;;5.03;1.70;;;8.90;99.90;;;;;;4912425;29;20110;-84
2021/05/06 14:41:42;;;;;;;;;;;;;;;;;;;;;
2021/05/06 14:46:19;;;;;;;2.35;2.15;;;8.80;99.90;;;;;;4931543;28;20060;-84
2021/05/06 15:08:48;;;;;;;1.95;1.77;;;9.10;99.40;;;;;;5030596;28;20390;-84
2021/05/06 15:13:19;;;;;;;11.23;2.58;;;8.90;99.80;;;;;;5025821;28;20049;-84
2021/05/06 15:17:30;;;;;;;5.03;1.95;;;8.90;99.90;;;;;;5019307;28;20411;-85
2021/05/06 15:21:24;;;;;;;5.25;2.53;;;8.80;99.90;;;;;;4903432;29;20137;-85
2021/05/06 16:15:28;;;;;;;3.85;2.45;;;8.30;99.90;;;;;;4896179;29;20066;-83
2021/05/06 16:18:41;;;;;;;5.97;2.75;;;8.20;99.90;;;;;;4915574;28;20513;-83
2021/05/06 16:21:13;;;;;;;5.93;2.50;;;8.30;99.90;;;;;;4934275;28;20444;-83
2021/05/06 16:23:41;;;;;;;2.45;2.22;;;8.20;99.90;;;;;;4951829;28;20121;-83
2021/05/06 16:26:10;;;;;;;10.40;3.88;;;8.10;99.90;;;;;;4952041;28;20046;-83
2021/05/06 16:28:38;;;;;;;4.40;4.00;;;8.20;99.90;;;;;;4935088;28;20058;-83
2021/05/06 16:31:06;;;;;;;3.70;2.58;;;8.30;99.90;;;;;;4936124;28;20042;-83
2021/05/06 16:33:46;;;;;;;3.65;2.65;;;8.30;99.90;;;;;;4951977;28;20058;-83
2021/05/06 16:45:42;;;;;;;3.13;2.83;;;8.20;99.90;;;;;;4956284;28;20078;-82
2021/05/06 16:48:19;;;;;;;7.40;2.75;;;8.30;99.90;;;;;;4946780;28;20126;-82
2021/05/06 16:50:52;;;;;;;7.68;4.05;;;8.30;99.90;;;;;;4986476;28;20049;-82
2021/05/06 16:53:41;;;;;;;4.47;2.42;;;8.30;99.90;;;;;;4962736;28;20057;-82
2021/05/06 16:56:13;;;;;;;8.25;3.40;;;8.20;99.90;;;;;;4988675;28;20046;-82
2021/05/06 16:58:40;;;;;;;4.97;2.43;;;8.20;99.90;;;;;;5010015;28;20049;-81
2021/05/06 17:01:08;;;;;;;2.60;2.40;;;8.20;99.90;;;;;;4958909;28;20456;-82
2021/05/06 17:03:36;;;;;;;3.30;2.30;;;8.20;99.90;;;;;;4990388;28;20042;-83
2021/05/06 17:06:04;;;;;;;5.72;1.98;;;8.20;99.90;;;;;;4988770;28;20058;-81
2021/05/06 17:08:31;;;;;;;2.72;2.53;;;8.20;99.90;;;;;;5008768;28;20050;-82
2021/05/06 17:10:59;;;;;;;3.63;3.20;;;8.20;99.90;;;;;;5009772;28;20038;-79
2021/05/06 17:13:27;;;;;;;6.38;3.03;;;8.20;99.90;;;;;;5009991;28;20518;-79
2021/05/06 17:16:03;;;;;;;2.67;2.42;;;8.20;99.90;;;;;;4974802;28;20389;-79
2021/05/06 17:18:30;;;;;;;4.15;2.53;;;8.20;99.90;;;;;;4970706;28;20066;-81
2021/05/06 17:20:58;;;;;;;4.40;3.15;;;8.20;99.90;;;;;;4970947;28;20062;-82
2021/05/06 17:23:29;;;;;;;3.42;2.58;;;8.10;99.90;;;;;;4985660;28;20054;-84
2021/05/06 17:25:57;;;;;;;4.53;3.08;;;8.10;99.90;;;;;;4983556;28;20058;-81
2021/05/06 17:28:24;;;;;;;7.90;2.63;;;8.10;99.90;;;;;;4971832;28;20042;-84
2021/05/06 17:30:53;;;;;;;3.63;3.33;;;8.00;99.90;;;;;;4989068;28;20411;-81
2021/05/06 17:33:21;;;;;;;2.97;2.78;;;8.10;99.90;;;;;;4989640;28;20058;-81
2021/05/06 17:35:48;;;;;;;4.00;2.83;;;8.10;99.90;;;;;;4989801;28;20034;-81
2021/05/06 17:38:16;;;;;;;4.70;2.85;;;8.10;99.90;;;;;;4991314;28;20411;-81
2021/05/06 17:40:43;;;;;;;2.80;2.60;;;8.10;99.90;;;;;;4973013;28;20046;-82
2021/05/06 17:43:11;;;;;;;3.15;2.83;;;8.10;99.90;;;;;;4991085;28;20046;-82
2021/05/06 17:45:39;;;;;;;4.97;2.65;;;8.00;99.90;;;;;;4990915;28;20400;-82
2021/05/06 17:48:08;;;;;;;12.80;4.13;;;8.00;99.90;;;;;;4990456;28;20506;-81
2021/05/06 17:50:36;;;;;;;4.72;3.28;;;7.90;99.90;;;;;;4990696;28;20054;-82
2021/05/06 17:53:06;;;;;;;4.40;2.70;;;7.80;99.90;;;;;;4994822;28;20058;-83
2021/05/06 17:55:34;;;;;;;3.67;2.75;;;7.80;99.90;;;;;;4994314;28;20046;-83
2021/05/06 17:58:01;;;;;;;5.00;2.85;;;7.80;99.90;;;;;;4961068;28;20057;-83
2021/05/06 18:00:29;;;;;;;6.63;3.25;;;7.80;99.90;;;;;;4991950;28;20054;-83
2021/05/06 18:02:57;;;;;;;4.00;3.10;;;7.90;99.90;;;;;;4993804;28;20042;-83
2021/05/06 18:05:26;;;;;;;6.13;3.42;;;7.80;99.90;;;;;;4993625;28;20514;-83
2021/05/06 18:07:55;;;;;;;3.30;2.67;;;7.70;99.90;;;;;;4992180;28;20030;-83
2021/05/06 18:10:28;;;;;;;6.22;2.65;;;7.60;99.90;;;;;;4976302;28;20373;-82
2021/05/06 18:12:56;;;;;;;3.03;2.70;;;7.70;99.90;;;;;;4994057;28;20058;-81
2021/05/06 18:15:23;;;;;;;3.65;3.40;;;7.50;99.90;;;;;;5022350;28;20049;-84
2021/05/06 18:17:51;;;;;;;3.72;3.08;;;7.40;99.90;;;;;;5033115;28;20045;-83
2021/05/06 18:20:18;;;;;;;5.65;3.13;;;7.30;99.90;;;;;;5031913;28;20046;-83
2021/05/06 18:22:46;;;;;;;4.07;2.75;;;7.30;99.90;;;;;;5008900;28;20521;-84
2021/05/06 18:25:14;;;;;;;2.83;2.55;;;7.30;99.90;;;;;;4990172;28;20060;-83
2021/05/06 18:27:43;;;;;;;3.67;2.22;;;7.40;99.90;;;;;;5011170;28;20045;-82
2021/05/06 18:30:14;;;;;;;3.55;3.25;;;7.40;99.90;;;;;;4998023;28;20085;-82
2021/05/06 18:32:42;;;;;;;3.25;2.95;;;7.40;99.90;;;;;;5032379;28;20046;-83
2021/05/06 18:35:10;;;;;;;3.50;2.42;;;7.40;99.90;;;;;;4998054;28;20410;-83
2021/05/06 18:37:37;;;;;;;4.57;3.03;;;7.50;99.90;;;;;;4998924;28;20045;-83
2021/05/06 18:40:06;;;;;;;5.25;3.08;;;7.50;99.90;;;;;;4998535;28;20401;-83
2021/05/06 18:42:35;;;;;;;4.40;2.63;;;7.50;99.90;;;;;;5031832;28;20060;-83
2021/05/06 18:45:03;;;;;;;3.47;3.22;;;7.50;99.90;;;;;;4999253;28;20049;-83
2021/05/06 18:47:31;;;;;;;2.50;2.30;;;7.50;99.90;;;;;;5014969;28;20037;-83
2021/05/06 18:49:58;;;;;;;4.30;3.83;;;7.50;99.90;;;;;;5006532;28;20046;-83
2021/05/06 18:52:26;;;;;;;4.80;2.78;;;7.40;99.90;;;;;;4962714;28;20057;-83
2021/05/06 18:54:58;;;;;;;3.88;2.42;;;7.40;99.90;;;;;;4979536;28;20053;-83
2021/05/06 18:57:25;;;;;;;2.72;2.40;;;7.30;99.90;;;;;;4966132;28;20050;-83
2021/05/06 18:59:52;;;;;;;3.75;3.45;;;7.30;99.90;;;;;;4994797;28;20045;-83
2021/05/06 19:02:20;;;;;;;3.80;3.35;;;7.40;99.90;;;;;;5012659;28;20053;-83
2021/05/06 19:04:48;;;;;;;6.22;3.20;;;7.40;99.90;;;;;;4993607;28;20049;-82
2021/05/06 19:07:15;;;;;;;4.80;2.47;;;7.40;99.90;;;;;;5009557;28;20041;-83
2021/05/06 19:09:43;;;;;;;3.35;3.00;;;7.30;99.90;;;;;;5023375;28;20053;-83
2021/05/06 19:12:11;;;;;;;4.40;3.55;;;7.30;99.90;;;;;;5031333;28;20053;-83
2021/05/06 19:14:40;;;;;;;4.07;3.67;;;7.40;99.90;;;;;;4993999;28;20050;-83
2021/05/06 19:17:09;;;;;;;4.00;3.35;;;7.40;99.90;;;;;;5010301;28;20061;-84
2021/05/06 19:19:38;;;;;;;3.47;3.17;;;7.40;99.90;;;;;;5006172;28;20049;-83
2021/05/06 19:22:05;;;;;;;8.35;4.53;;;7.40;99.90;;;;;;4990795;28;20058;-83
2021/05/06 19:24:34;;;;;;;6.10;4.72;;;7.30;99.90;;;;;;5004711;28;20053;-83
2021/05/06 19:27:01;;;;;;;4.25;3.95;;;7.40;99.90;;;;;;5011592;28;20049;-83
2021/05/06 19:29:29;;;;;;;6.15;3.88;;;7.40;99.90;;;;;;5011390;28;20053;-83
2021/05/06 19:31:57;;;;;;;7.40;4.60;;;7.40;99.90;;;;;;5007961;28;20046;-83
2021/05/06 19:34:24;;;;;;;4.53;4.13;;;7.40;99.90;;;;;;4990271;28;20062;-83
2021/05/06 19:36:53;;;;;;;6.05;5.50;;;7.30;99.90;;;;;;5010161;28;20054;-83
2021/05/06 19:39:21;;;;;;;5.20;4.63;;;7.30;99.90;;;;;;5011120;28;20042;-85
2021/05/06 19:41:49;;;;;;;8.25;7.45;;;7.30;99.90;;;;;;5011517;28;20049;-83
2021/05/06 19:44:26;;;;;;;5.70;4.88;;;7.30;99.90;;;;;;5010423;28;20384;-83
2021/05/06 19:49:38;;;;;;;6.10;5.50;;;7.20;99.90;;;;;;5011390;28;20053;-83
2021/05/06 19:52:07;;;;;;;4.72;4.30;;;7.20;99.90;;;;;;5010648;28;20038;-84
2021/05/06 19:54:36;;;;;;;5.30;4.80;;;7.20;99.90;;;;;;5008813;28;20049;-83
2021/05/06 19:57:08;;;;;;;8.18;6.00;;;7.20;99.90;;;;;;5010001;28;20407;-83
2021/05/06 19:59:40;;;;;;;6.55;5.95;;;7.20;99.90;;;;;;5009858;28;20038;-85
2021/05/06 20:02:07;;;;;;;8.02;7.13;;;7.10;99.90;;;;;;5010675;28;20108;-83
2021/05/06 20:04:35;;;;;;;9.75;6.15;;;7.00;99.90;;;;;;4992191;28;20057;-83
2021/05/06 20:07:03;;;;;;;7.25;6.18;;;7.00;99.90;;;;;;5010739;28;20042;-84
2021/05/06 20:09:31;;;;;;;8.10;7.43;;;6.90;99.90;;;;;;4993393;28;20049;-83
2021/05/06 20:11:58;;;;;;;7.88;5.00;;;6.70;99.90;;;;;;4992906;28;20056;-83
2021/05/06 20:14:31;;;;;;;5.35;4.85;;;6.70;99.90;;;;;;4992505;28;20056;-82
2021/05/06 20:17:01;;;;;;;6.68;5.93;;;6.70;99.90;;;;;;5009160;28;20057;-84
2021/05/06 20:19:38;;;;;;;10.55;7.47;;;6.70;99.90;;;;;;4989106;28;20050;-82
2021/05/06 20:22:06;;;;;;;9.98;8.35;;;6.80;99.90;;;;;;4989898;28;20483;-83